Domov               UVHVVR             MKGP            O straneh              
ZDRAVSTVENO VARSTVO RASTLIN
  MREŽA AGROMET. POSTAJ
 ► PROGNOSTIČNA OBVESTILA
AGROMETEOROLOŠKI PODATKI -
ARSO
OBVLADOVANJE TVEGANJ ZARADI
NEUGODNIH VREMENSKIH RAZMER
  ► NARAVNE NESREČE
  ► SUŠA/MOČA
  ► NAMAKANJE
  ► ŽLED (gozdarstvo)
KARTOGRAFSKI PRIKAZI
SPLETNE POVEZAVE
PROJEKTI IN PUBLIKACIJE

AGROMETEOROLOŠKA MREŽA: VREMENSKE POSTAJE IN FENOLOŠKA OPAZOVANJA

Pregled podatkov za lokacijo Dragonja, meteorološka postaja 42389

Pregled senzorjev na lokaciji

ID Ime Zadnja
vrednost
Datum
zadnje
spremembe
Tip
senzorja
2095 Temperatura 2 m (°C) 12,62 °C 11.12.2017 10:00 50YA
2096 Relativna vlaga 2 m (% RH) 81,13 % RH 11.12.2017 10:00 50YA
2098 Padavine (mm) 0,4 mm 11.12.2017 10:00 Rain-O-Matic

Pregled podatkov zadnjih 24 ur

Zap.
št.
Datum in čas Dragonja
Padavine Relativna
vlaga
2
m
Temperatura
2
m
0 11.12.2017 10:00 0,4 81,13 12,62
1 11.12.2017 09:30 0,4 79,99 12,73
2 11.12.2017 09:00 0,2 79,94 12,68
3 11.12.2017 08:30 0,2 82,57 12,44
4 11.12.2017 08:00 0,8 86,56 11,97
5 11.12.2017 07:30 2,6 89,9 11,39
6 11.12.2017 07:00 2,6 89,52 11,29
7 11.12.2017 06:30 2,8 87,28 11,28
8 11.12.2017 06:00 2,4 85,54 11,35
9 11.12.2017 05:30 0,6 83,49 11,64
10 11.12.2017 05:00 1 90,56 10,99
11 11.12.2017 04:30 3 97,2 10,82
12 11.12.2017 04:00 3,6 99,91 9,28
13 11.12.2017 03:30 4,4 98,14 8,31
14 11.12.2017 03:00 6,2 97,61 8,25
15 11.12.2017 02:30 6,6 93,28 8,78
16 11.12.2017 02:00 3,4 91,88 9,4
17 11.12.2017 01:30 4 90,15 9,5
18 11.12.2017 01:00 2,2 88,14 9,52
19 11.12.2017 00:30 1 89 9
20 11.12.2017 00:00 2 90,81 8,24
21 10.12.2017 23:30 1,8 91,02 7,7
22 10.12.2017 23:00 1 91,19 7,35
23 10.12.2017 22:30 1 92,4 6,89
24 10.12.2017 22:00 1,4 92,68 6,47
25 10.12.2017 21:30 1,4 95,99 5,76
26 10.12.2017 21:00 1,4 97,11 2,71
27 10.12.2017 20:30 1,4 94,8 2,33
28 10.12.2017 20:00 1,2 94,02 2,29
29 10.12.2017 19:30 0,8 93,06 2,36
30 10.12.2017 19:00 0,8 91,68 2,79
31 10.12.2017 18:30 1,6 90,36 3,2
32 10.12.2017 18:00 0,8 86,75 5,37
33 10.12.2017 17:30 0,6 84,18 5,69
34 10.12.2017 17:00 0,2 80,67 5,82
35 10.12.2017 16:30 0,6 74,26 6,26
36 10.12.2017 16:00 0 64,61 7,04
37 10.12.2017 15:30 0 53,65 7,67
38 10.12.2017 15:00 0 54,84 7,45
39 10.12.2017 14:30 0 54,48 7,2
40 10.12.2017 14:00 0 54,31 6,86
41 10.12.2017 13:30 0 48,95 6,74
42 10.12.2017 13:00 0 48,22 6,18
43 10.12.2017 12:30 0 49,37 5,92
44 10.12.2017 12:00 0 51,05 5,95
45 10.12.2017 11:30 0 55,33 5,54
46 10.12.2017 11:00 0 53,18 5,83
© 2011 Ministrstvo za kmetijstvo, gozdarstvo in prehrano. Vse pravice pridržane.